Baldwin, New York
Current Conditions -  °F | °C
As of 8:51 PM on Sunday 21 Dec 2014 (Local Time) from KJFK Reporting Station
Light Snow Light Snow  
Wind Chill: 29°   Ceiling: 2400
Heat Index: 36°   Visibility: 10mi
Dew Point: 30°   Wind: 9mph
Humidity: 79%   Direction: 360°N
Pressure: 30.35"   Gusts: NA
Location:  40.66°N, 73.61°W
Report Text: KJFK 220151Z 36008KT 10SM -SN FEW012 BKN024 OVC036 02/M01 A3035 RMK AO2 SNB42 SLP276 P0000 T00221011 $
Loading
Personal Weather Stations






























Interactive Weather Map New forecast layout! Learn more

10-Day Weather Forecast

Advertisements
Track Severe Weather on mobile